<?xml version="1.0" encoding="UTF-8" standalone="no" ?>
<gpx xmlns="http://www.topografix.com/GPX/1/1" xmlns:xsi="http://www.w3.org/2001/XMLSchema-instance" xsi:schemaLocation="http://www.topografix.com/GPX/1/1 http://www.topografix.com/GPX/1/1/gpx.xsd" version="1.1" creator="VisuGPX - https://www.visugpx.com">
  <metadata>
    <name>Pierra Menta J1 2023</name>
  </metadata>
  <wpt lat="45.68355" lon="6.50921">
    <ele>2085.4</ele>
    <name><![CDATA[Bouteille d'eau]]></name>
    <desc><![CDATA[]]></desc>
  </wpt>
  <wpt lat="45.68333" lon="6.51039">
    <ele>2055</ele>
    <name><![CDATA[Ravitaillement]]></name>
    <desc><![CDATA[]]></desc>
  </wpt>
  <wpt lat="45.67206" lon="6.54049">
    <ele>1204</ele>
    <name><![CDATA[Bouteille d'eau]]></name>
    <desc><![CDATA[]]></desc>
  </wpt>
  <trk>
    <name><![CDATA[Projet J1 2023-13985319]]></name>
    <trkseg>
      <trkpt lat="45.68393" lon="6.56283">
        <ele>1026</ele>
        <time>2023-06-03T16:09:45Z</time>
      </trkpt>
      <trkpt lat="45.68437" lon="6.56327">
        <ele>1018</ele>
        <time>2023-06-03T16:10:12Z</time>
      </trkpt>
      <trkpt lat="45.68471" lon="6.56336">
        <ele>1017</ele>
        <time>2023-06-03T16:10:29Z</time>
      </trkpt>
      <trkpt lat="45.68504" lon="6.56315">
        <ele>1025</ele>
        <time>2023-06-03T16:10:47Z</time>
      </trkpt>
      <trkpt lat="45.68554" lon="6.56339">
        <ele>1022</ele>
        <time>2023-06-03T16:11:14Z</time>
      </trkpt>
      <trkpt lat="45.6858" lon="6.56331">
        <ele>1025</ele>
        <time>2023-06-03T16:11:27Z</time>
      </trkpt>
      <trkpt lat="45.68597" lon="6.56304">
        <ele>1029</ele>
        <time>2023-06-03T16:11:40Z</time>
      </trkpt>
      <trkpt lat="45.68638" lon="6.56287">
        <ele>1028</ele>
        <time>2023-06-03T16:12:01Z</time>
      </trkpt>
      <trkpt lat="45.68765" lon="6.56283">
        <ele>1019</ele>
        <time>2023-06-03T16:13:05Z</time>
      </trkpt>
      <trkpt lat="45.6884" lon="6.56269">
        <ele>1019</ele>
        <time>2023-06-03T16:13:42Z</time>
      </trkpt>
      <trkpt lat="45.6883" lon="6.56151">
        <ele>1035</ele>
        <time>2023-06-03T16:14:24Z</time>
      </trkpt>
      <trkpt lat="45.6885" lon="6.56134">
        <ele>1036</ele>
        <time>2023-06-03T16:14:36Z</time>
      </trkpt>
      <trkpt lat="45.68872" lon="6.5614">
        <ele>1035</ele>
        <time>2023-06-03T16:14:47Z</time>
      </trkpt>
      <trkpt lat="45.68881" lon="6.56175">
        <ele>1029</ele>
        <time>2023-06-03T16:15:00Z</time>
      </trkpt>
      <trkpt lat="45.68946" lon="6.56218">
        <ele>1019</ele>
        <time>2023-06-03T16:15:36Z</time>
      </trkpt>
      <trkpt lat="45.69024" lon="6.56266">
        <ele>1017</ele>
        <time>2023-06-03T16:16:18Z</time>
      </trkpt>
      <trkpt lat="45.69054" lon="6.56282">
        <ele>1016</ele>
        <time>2023-06-03T16:16:34Z</time>
      </trkpt>
      <trkpt lat="45.69087" lon="6.56266">
        <ele>1022</ele>
        <time>2023-06-03T16:16:52Z</time>
      </trkpt>
      <trkpt lat="45.69122" lon="6.56271">
        <ele>1021</ele>
        <time>2023-06-03T16:17:09Z</time>
      </trkpt>
      <trkpt lat="45.69175" lon="6.56263">
        <ele>1022</ele>
        <time>2023-06-03T16:17:36Z</time>
      </trkpt>
      <trkpt lat="45.69264" lon="6.56172">
        <ele>1028</ele>
        <time>2023-06-03T16:18:31Z</time>
      </trkpt>
      <trkpt lat="45.69271" lon="6.56137">
        <ele>1031</ele>
        <time>2023-06-03T16:18:43Z</time>
      </trkpt>
      <trkpt lat="45.69282" lon="6.56034">
        <ele>1042</ele>
        <time>2023-06-03T16:19:20Z</time>
      </trkpt>
      <trkpt lat="45.69302" lon="6.55957">
        <ele>1050</ele>
        <time>2023-06-03T16:19:48Z</time>
      </trkpt>
      <trkpt lat="45.69333" lon="6.55952">
        <ele>1043</ele>
        <time>2023-06-03T16:20:04Z</time>
      </trkpt>
      <trkpt lat="45.69369" lon="6.5604">
        <ele>1032</ele>
        <time>2023-06-03T16:20:40Z</time>
      </trkpt>
      <trkpt lat="45.69411" lon="6.56017">
        <ele>1039</ele>
        <time>2023-06-03T16:21:02Z</time>
      </trkpt>
      <trkpt lat="45.69431" lon="6.56014">
        <ele>1041</ele>
        <time>2023-06-03T16:21:12Z</time>
      </trkpt>
      <trkpt lat="45.69475" lon="6.56028">
        <ele>1041</ele>
        <time>2023-06-03T16:21:35Z</time>
      </trkpt>
      <trkpt lat="45.69514" lon="6.56031">
        <ele>1042</ele>
        <time>2023-06-03T16:21:54Z</time>
      </trkpt>
      <trkpt lat="45.69538" lon="6.56007">
        <ele>1050</ele>
        <time>2023-06-03T16:22:09Z</time>
      </trkpt>
      <trkpt lat="45.69539" lon="6.5598">
        <ele>1059</ele>
        <time>2023-06-03T16:22:19Z</time>
      </trkpt>
      <trkpt lat="45.69493" lon="6.55967">
        <ele>1060</ele>
        <time>2023-06-03T16:22:42Z</time>
      </trkpt>
      <trkpt lat="45.69523" lon="6.55925">
        <ele>1077</ele>
        <time>2023-06-03T16:23:03Z</time>
      </trkpt>
      <trkpt lat="45.69477" lon="6.5589">
        <ele>1084</ele>
        <time>2023-06-03T16:23:29Z</time>
      </trkpt>
      <trkpt lat="45.69476" lon="6.55866">
        <ele>1092</ele>
        <time>2023-06-03T16:23:37Z</time>
      </trkpt>
      <trkpt lat="45.69452" lon="6.55857">
        <ele>1093</ele>
        <time>2023-06-03T16:23:50Z</time>
      </trkpt>
      <trkpt lat="45.69444" lon="6.55831">
        <ele>1101</ele>
        <time>2023-06-03T16:24:00Z</time>
      </trkpt>
      <trkpt lat="45.69458" lon="6.55823">
        <ele>1106</ele>
        <time>2023-06-03T16:24:07Z</time>
      </trkpt>
      <trkpt lat="45.6945" lon="6.55802">
        <ele>1113</ele>
        <time>2023-06-03T16:24:16Z</time>
      </trkpt>
      <trkpt lat="45.69474" lon="6.55773">
        <ele>1126</ele>
        <time>2023-06-03T16:24:31Z</time>
      </trkpt>
      <trkpt lat="45.69452" lon="6.55761">
        <ele>1128</ele>
        <time>2023-06-03T16:24:43Z</time>
      </trkpt>
      <trkpt lat="45.69433" lon="6.55744">
        <ele>1133</ele>
        <time>2023-06-03T16:24:54Z</time>
      </trkpt>
      <trkpt lat="45.69451" lon="6.55726">
        <ele>1139</ele>
        <time>2023-06-03T16:25:05Z</time>
      </trkpt>
      <trkpt lat="45.69457" lon="6.55697">
        <ele>1147</ele>
        <time>2023-06-03T16:25:16Z</time>
      </trkpt>
      <trkpt lat="45.69429" lon="6.55673">
        <ele>1149</ele>
        <time>2023-06-03T16:25:32Z</time>
      </trkpt>
      <trkpt lat="45.69424" lon="6.55641">
        <ele>1158</ele>
        <time>2023-06-03T16:25:44Z</time>
      </trkpt>
      <trkpt lat="45.69448" lon="6.55665">
        <ele>1154</ele>
        <time>2023-06-03T16:25:58Z</time>
      </trkpt>
      <trkpt lat="45.69443" lon="6.55597">
        <ele>1176</ele>
        <time>2023-06-03T16:26:22Z</time>
      </trkpt>
      <trkpt lat="45.6948" lon="6.55609">
        <ele>1178</ele>
        <time>2023-06-03T16:26:41Z</time>
      </trkpt>
      <trkpt lat="45.69464" lon="6.55585">
        <ele>1184</ele>
        <time>2023-06-03T16:26:53Z</time>
      </trkpt>
      <trkpt lat="45.69479" lon="6.55562">
        <ele>1195</ele>
        <time>2023-06-03T16:27:04Z</time>
      </trkpt>
      <trkpt lat="45.69483" lon="6.55547">
        <ele>1202</ele>
        <time>2023-06-03T16:27:10Z</time>
      </trkpt>
      <trkpt lat="45.69471" lon="6.55527">
        <ele>1207</ele>
        <time>2023-06-03T16:27:19Z</time>
      </trkpt>
      <trkpt lat="45.69466" lon="6.5548">
        <ele>1223</ele>
        <time>2023-06-03T16:27:35Z</time>
      </trkpt>
      <trkpt lat="45.69388" lon="6.55356">
        <ele>1251</ele>
        <time>2023-06-03T16:28:34Z</time>
      </trkpt>
      <trkpt lat="45.6938" lon="6.55313">
        <ele>1258</ele>
        <time>2023-06-03T16:28:49Z</time>
      </trkpt>
      <trkpt lat="45.69381" lon="6.55279">
        <ele>1267</ele>
        <time>2023-06-03T16:29:01Z</time>
      </trkpt>
      <trkpt lat="45.69393" lon="6.5526">
        <ele>1277</ele>
        <time>2023-06-03T16:29:10Z</time>
      </trkpt>
      <trkpt lat="45.69397" lon="6.55244">
        <ele>1283</ele>
        <time>2023-06-03T16:29:16Z</time>
      </trkpt>
      <trkpt lat="45.6939" lon="6.55204">
        <ele>1289</ele>
        <time>2023-06-03T16:29:30Z</time>
      </trkpt>
      <trkpt lat="45.69444" lon="6.55232">
        <ele>1304</ele>
        <time>2023-06-03T16:29:59Z</time>
      </trkpt>
      <trkpt lat="45.6945" lon="6.5521">
        <ele>1311</ele>
        <time>2023-06-03T16:30:07Z</time>
      </trkpt>
      <trkpt lat="45.69561" lon="6.55225">
        <ele>1344</ele>
        <time>2023-06-03T16:31:03Z</time>
      </trkpt>
      <trkpt lat="45.69552" lon="6.5521">
        <ele>1346</ele>
        <time>2023-06-03T16:31:10Z</time>
      </trkpt>
      <trkpt lat="45.6958" lon="6.5521">
        <ele>1355</ele>
        <time>2023-06-03T16:31:24Z</time>
      </trkpt>
      <trkpt lat="45.69557" lon="6.55162">
        <ele>1363</ele>
        <time>2023-06-03T16:31:44Z</time>
      </trkpt>
      <trkpt lat="45.69585" lon="6.55156">
        <ele>1374</ele>
        <time>2023-06-03T16:31:59Z</time>
      </trkpt>
      <trkpt lat="45.69561" lon="6.55101">
        <ele>1381</ele>
        <time>2023-06-03T16:32:21Z</time>
      </trkpt>
      <trkpt lat="45.69563" lon="6.5508">
        <ele>1386</ele>
        <time>2023-06-03T16:32:29Z</time>
      </trkpt>
      <trkpt lat="45.69572" lon="6.5506">
        <ele>1391</ele>
        <time>2023-06-03T16:32:37Z</time>
      </trkpt>
      <trkpt lat="45.69566" lon="6.55042">
        <ele>1392</ele>
        <time>2023-06-03T16:32:44Z</time>
      </trkpt>
      <trkpt lat="45.69604" lon="6.54986">
        <ele>1408</ele>
        <time>2023-06-03T16:33:11Z</time>
      </trkpt>
      <trkpt lat="45.6958" lon="6.54955">
        <ele>1408</ele>
        <time>2023-06-03T16:33:27Z</time>
      </trkpt>
      <trkpt lat="45.69564" lon="6.54914">
        <ele>1415</ele>
        <time>2023-06-03T16:33:44Z</time>
      </trkpt>
      <trkpt lat="45.69562" lon="6.5488">
        <ele>1433</ele>
        <time>2023-06-03T16:33:56Z</time>
      </trkpt>
      <trkpt lat="45.69566" lon="6.54865">
        <ele>1441</ele>
        <time>2023-06-03T16:34:01Z</time>
      </trkpt>
      <trkpt lat="45.69594" lon="6.5487">
        <ele>1442</ele>
        <time>2023-06-03T16:34:16Z</time>
      </trkpt>
      <trkpt lat="45.69623" lon="6.54864">
        <ele>1452</ele>
        <time>2023-06-03T16:34:30Z</time>
      </trkpt>
      <trkpt lat="45.69613" lon="6.54838">
        <ele>1461</ele>
        <time>2023-06-03T16:34:41Z</time>
      </trkpt>
      <trkpt lat="45.6966" lon="6.54836">
        <ele>1469</ele>
        <time>2023-06-03T16:35:04Z</time>
      </trkpt>
      <trkpt lat="45.69655" lon="6.54813">
        <ele>1476</ele>
        <time>2023-06-03T16:35:13Z</time>
      </trkpt>
      <trkpt lat="45.69636" lon="6.54788">
        <ele>1479</ele>
        <time>2023-06-03T16:35:25Z</time>
      </trkpt>
      <trkpt lat="45.69619" lon="6.54741">
        <ele>1487</ele>
        <time>2023-06-03T16:35:44Z</time>
      </trkpt>
      <trkpt lat="45.69644" lon="6.54726">
        <ele>1499</ele>
        <time>2023-06-03T16:35:58Z</time>
      </trkpt>
      <trkpt lat="45.69619" lon="6.54669">
        <ele>1503</ele>
        <time>2023-06-03T16:36:21Z</time>
      </trkpt>
      <trkpt lat="45.69631" lon="6.54653">
        <ele>1511</ele>
        <time>2023-06-03T16:36:29Z</time>
      </trkpt>
      <trkpt lat="45.69631" lon="6.54634">
        <ele>1515</ele>
        <time>2023-06-03T16:36:36Z</time>
      </trkpt>
      <trkpt lat="45.69652" lon="6.54623">
        <ele>1526</ele>
        <time>2023-06-03T16:36:47Z</time>
      </trkpt>
      <trkpt lat="45.69657" lon="6.54602">
        <ele>1532</ele>
        <time>2023-06-03T16:36:55Z</time>
      </trkpt>
      <trkpt lat="45.69706" lon="6.54568">
        <ele>1552</ele>
        <time>2023-06-03T16:37:22Z</time>
      </trkpt>
      <trkpt lat="45.69678" lon="6.54511">
        <ele>1557</ele>
        <time>2023-06-03T16:37:46Z</time>
      </trkpt>
      <trkpt lat="45.6969" lon="6.54447">
        <ele>1573</ele>
        <time>2023-06-03T16:38:10Z</time>
      </trkpt>
      <trkpt lat="45.69707" lon="6.54415">
        <ele>1584</ele>
        <time>2023-06-03T16:38:24Z</time>
      </trkpt>
      <trkpt lat="45.69708" lon="6.54385">
        <ele>1592</ele>
        <time>2023-06-03T16:38:34Z</time>
      </trkpt>
      <trkpt lat="45.69728" lon="6.54329">
        <ele>1613</ele>
        <time>2023-06-03T16:38:56Z</time>
      </trkpt>
      <trkpt lat="45.69723" lon="6.5426">
        <ele>1626</ele>
        <time>2023-06-03T16:39:20Z</time>
      </trkpt>
      <trkpt lat="45.69716" lon="6.5423">
        <ele>1630</ele>
        <time>2023-06-03T16:39:31Z</time>
      </trkpt>
      <trkpt lat="45.69721" lon="6.54182">
        <ele>1641</ele>
        <time>2023-06-03T16:39:48Z</time>
      </trkpt>
      <trkpt lat="45.69715" lon="6.54157">
        <ele>1644</ele>
        <time>2023-06-03T16:39:58Z</time>
      </trkpt>
      <trkpt lat="45.69705" lon="6.54084">
        <ele>1655</ele>
        <time>2023-06-03T16:40:24Z</time>
      </trkpt>
      <trkpt lat="45.69724" lon="6.54091">
        <ele>1659</ele>
        <time>2023-06-03T16:40:33Z</time>
      </trkpt>
      <trkpt lat="45.69714" lon="6.54062">
        <ele>1662</ele>
        <time>2023-06-03T16:40:45Z</time>
      </trkpt>
      <trkpt lat="45.6972" lon="6.5404">
        <ele>1668</ele>
        <time>2023-06-03T16:40:53Z</time>
      </trkpt>
      <trkpt lat="45.69743" lon="6.54042">
        <ele>1673</ele>
        <time>2023-06-03T16:41:05Z</time>
      </trkpt>
      <trkpt lat="45.69748" lon="6.53977">
        <ele>1689</ele>
        <time>2023-06-03T16:41:27Z</time>
      </trkpt>
      <trkpt lat="45.69763" lon="6.53967">
        <ele>1692</ele>
        <time>2023-06-03T16:41:36Z</time>
      </trkpt>
      <trkpt lat="45.69781" lon="6.53921">
        <ele>1705</ele>
        <time>2023-06-03T16:41:54Z</time>
      </trkpt>
      <trkpt lat="45.69846" lon="6.53887">
        <ele>1707</ele>
        <time>2023-06-03T16:42:29Z</time>
      </trkpt>
      <trkpt lat="45.69865" lon="6.53815">
        <ele>1715</ele>
        <time>2023-06-03T16:42:56Z</time>
      </trkpt>
      <trkpt lat="45.69906" lon="6.53745">
        <ele>1717</ele>
        <time>2023-06-03T16:43:28Z</time>
      </trkpt>
      <trkpt lat="45.69893" lon="6.53722">
        <ele>1722</ele>
        <time>2023-06-03T16:43:38Z</time>
      </trkpt>
      <trkpt lat="45.69866" lon="6.53711">
        <ele>1730</ele>
        <time>2023-06-03T16:43:52Z</time>
      </trkpt>
      <trkpt lat="45.69852" lon="6.53687">
        <ele>1736</ele>
        <time>2023-06-03T16:44:03Z</time>
      </trkpt>
      <trkpt lat="45.69836" lon="6.53623">
        <ele>1746</ele>
        <time>2023-06-03T16:44:27Z</time>
      </trkpt>
      <trkpt lat="45.69751" lon="6.53547">
        <ele>1763</ele>
        <time>2023-06-03T16:45:17Z</time>
      </trkpt>
      <trkpt lat="45.69676" lon="6.53511">
        <ele>1784</ele>
        <time>2023-06-03T16:45:56Z</time>
      </trkpt>
      <trkpt lat="45.69642" lon="6.53488">
        <ele>1796</ele>
        <time>2023-06-03T16:46:15Z</time>
      </trkpt>
      <trkpt lat="45.69634" lon="6.53493">
        <ele>1796</ele>
        <time>2023-06-03T16:46:20Z</time>
      </trkpt>
      <trkpt lat="45.69625" lon="6.53493">
        <ele>1798</ele>
        <time>2023-06-03T16:46:24Z</time>
      </trkpt>
      <trkpt lat="45.69599" lon="6.53459">
        <ele>1808</ele>
        <time>2023-06-03T16:46:42Z</time>
      </trkpt>
      <trkpt lat="45.69549" lon="6.53437">
        <ele>1814</ele>
        <time>2023-06-03T16:47:08Z</time>
      </trkpt>
      <trkpt lat="45.695" lon="6.53421">
        <ele>1819</ele>
        <time>2023-06-03T16:47:33Z</time>
      </trkpt>
      <trkpt lat="45.69468" lon="6.5337">
        <ele>1825</ele>
        <time>2023-06-03T16:47:57Z</time>
      </trkpt>
      <trkpt lat="45.69439" lon="6.5335">
        <ele>1826</ele>
        <time>2023-06-03T16:48:13Z</time>
      </trkpt>
      <trkpt lat="45.69412" lon="6.53271">
        <ele>1829</ele>
        <time>2023-06-03T16:48:44Z</time>
      </trkpt>
      <trkpt lat="45.69432" lon="6.53198">
        <ele>1836</ele>
        <time>2023-06-03T16:49:11Z</time>
      </trkpt>
      <trkpt lat="45.69424" lon="6.53082">
        <ele>1840</ele>
        <time>2023-06-03T16:49:52Z</time>
      </trkpt>
      <trkpt lat="45.69409" lon="6.52969">
        <ele>1846</ele>
        <time>2023-06-03T16:50:32Z</time>
      </trkpt>
      <trkpt lat="45.69393" lon="6.52887">
        <ele>1854</ele>
        <time>2023-06-03T16:51:02Z</time>
      </trkpt>
      <trkpt lat="45.69357" lon="6.52619">
        <ele>1900</ele>
        <time>2023-06-03T16:52:37Z</time>
      </trkpt>
      <trkpt lat="45.69442" lon="6.52548">
        <ele>1944</ele>
        <time>2023-06-03T16:53:27Z</time>
      </trkpt>
      <trkpt lat="45.6949" lon="6.52546">
        <ele>1947</ele>
        <time>2023-06-03T16:53:51Z</time>
      </trkpt>
      <trkpt lat="45.69525" lon="6.52512">
        <ele>1960</ele>
        <time>2023-06-03T16:54:12Z</time>
      </trkpt>
      <trkpt lat="45.69527" lon="6.52485">
        <ele>1968</ele>
        <time>2023-06-03T16:54:21Z</time>
      </trkpt>
      <trkpt lat="45.69522" lon="6.5244">
        <ele>1980</ele>
        <time>2023-06-03T16:54:37Z</time>
      </trkpt>
      <trkpt lat="45.69557" lon="6.52405">
        <ele>1983</ele>
        <time>2023-06-03T16:54:59Z</time>
      </trkpt>
      <trkpt lat="45.69504" lon="6.52365">
        <ele>2002</ele>
        <time>2023-06-03T16:55:29Z</time>
      </trkpt>
      <trkpt lat="45.69517" lon="6.52343">
        <ele>2004</ele>
        <time>2023-06-03T16:55:39Z</time>
      </trkpt>
      <trkpt lat="45.69493" lon="6.52308">
        <ele>2029</ele>
        <time>2023-06-03T16:55:56Z</time>
      </trkpt>
      <trkpt lat="45.69503" lon="6.52253">
        <ele>2063</ele>
        <time>2023-06-03T16:56:16Z</time>
      </trkpt>
      <trkpt lat="45.69497" lon="6.52233">
        <ele>2070</ele>
        <time>2023-06-03T16:56:23Z</time>
      </trkpt>
      <trkpt lat="45.69509" lon="6.52205">
        <ele>2068</ele>
        <time>2023-06-03T16:56:35Z</time>
      </trkpt>
      <trkpt lat="45.69499" lon="6.52174">
        <ele>2081</ele>
        <time>2023-06-03T16:56:47Z</time>
      </trkpt>
      <trkpt lat="45.69464" lon="6.52156">
        <ele>2081</ele>
        <time>2023-06-03T16:57:05Z</time>
      </trkpt>
      <trkpt lat="45.69467" lon="6.52085">
        <ele>2092</ele>
        <time>2023-06-03T16:57:30Z</time>
      </trkpt>
      <trkpt lat="45.6945" lon="6.52016">
        <ele>2111</ele>
        <time>2023-06-03T16:57:56Z</time>
      </trkpt>
      <trkpt lat="45.69408" lon="6.51953">
        <ele>2128</ele>
        <time>2023-06-03T16:58:26Z</time>
      </trkpt>
      <trkpt lat="45.69396" lon="6.51918">
        <ele>2127</ele>
        <time>2023-06-03T16:58:40Z</time>
      </trkpt>
      <trkpt lat="45.69396" lon="6.51892">
        <ele>2123</ele>
        <time>2023-06-03T16:58:49Z</time>
      </trkpt>
      <trkpt lat="45.69357" lon="6.51822">
        <ele>2112</ele>
        <time>2023-06-03T16:59:20Z</time>
      </trkpt>
      <trkpt lat="45.69351" lon="6.51793">
        <ele>2111</ele>
        <time>2023-06-03T16:59:31Z</time>
      </trkpt>
      <trkpt lat="45.69351" lon="6.51771">
        <ele>2110</ele>
        <time>2023-06-03T16:59:38Z</time>
      </trkpt>
      <trkpt lat="45.69332" lon="6.5171">
        <ele>2106</ele>
        <time>2023-06-03T17:00:02Z</time>
      </trkpt>
      <trkpt lat="45.69298" lon="6.51661">
        <ele>2093</ele>
        <time>2023-06-03T17:00:26Z</time>
      </trkpt>
      <trkpt lat="45.69272" lon="6.51637">
        <ele>2088</ele>
        <time>2023-06-03T17:00:41Z</time>
      </trkpt>
      <trkpt lat="45.69272" lon="6.51616">
        <ele>2082</ele>
        <time>2023-06-03T17:00:49Z</time>
      </trkpt>
      <trkpt lat="45.69243" lon="6.51602">
        <ele>2085</ele>
        <time>2023-06-03T17:01:04Z</time>
      </trkpt>
      <trkpt lat="45.69224" lon="6.51563">
        <ele>2071</ele>
        <time>2023-06-03T17:01:21Z</time>
      </trkpt>
      <trkpt lat="45.69212" lon="6.51563">
        <ele>2072</ele>
        <time>2023-06-03T17:01:27Z</time>
      </trkpt>
      <trkpt lat="45.6921" lon="6.51535">
        <ele>2061</ele>
        <time>2023-06-03T17:01:37Z</time>
      </trkpt>
      <trkpt lat="45.6919" lon="6.51555">
        <ele>2071</ele>
        <time>2023-06-03T17:01:49Z</time>
      </trkpt>
      <trkpt lat="45.6915" lon="6.51543">
        <ele>2072</ele>
        <time>2023-06-03T17:02:09Z</time>
      </trkpt>
      <trkpt lat="45.69114" lon="6.51538">
        <ele>2072</ele>
        <time>2023-06-03T17:02:27Z</time>
      </trkpt>
      <trkpt lat="45.69082" lon="6.51566">
        <ele>2064</ele>
        <time>2023-06-03T17:02:46Z</time>
      </trkpt>
      <trkpt lat="45.6907" lon="6.51593">
        <ele>2055</ele>
        <time>2023-06-03T17:02:57Z</time>
      </trkpt>
      <trkpt lat="45.69069" lon="6.51633">
        <ele>2045</ele>
        <time>2023-06-03T17:03:11Z</time>
      </trkpt>
      <trkpt lat="45.69035" lon="6.5167">
        <ele>2033</ele>
        <time>2023-06-03T17:03:33Z</time>
      </trkpt>
      <trkpt lat="45.69056" lon="6.51718">
        <ele>2020</ele>
        <time>2023-06-03T17:03:52Z</time>
      </trkpt>
      <trkpt lat="45.69059" lon="6.51746">
        <ele>2012</ele>
        <time>2023-06-03T17:04:02Z</time>
      </trkpt>
      <trkpt lat="45.69053" lon="6.51809">
        <ele>1990</ele>
        <time>2023-06-03T17:04:25Z</time>
      </trkpt>
      <trkpt lat="45.6906" lon="6.51848">
        <ele>1977</ele>
        <time>2023-06-03T17:04:39Z</time>
      </trkpt>
      <trkpt lat="45.69062" lon="6.51912">
        <ele>1959</ele>
        <time>2023-06-03T17:05:01Z</time>
      </trkpt>
      <trkpt lat="45.69071" lon="6.51974">
        <ele>1949</ele>
        <time>2023-06-03T17:05:23Z</time>
      </trkpt>
      <trkpt lat="45.6907" lon="6.52003">
        <ele>1944</ele>
        <time>2023-06-03T17:05:33Z</time>
      </trkpt>
      <trkpt lat="45.69086" lon="6.52027">
        <ele>1946</ele>
        <time>2023-06-03T17:05:45Z</time>
      </trkpt>
      <trkpt lat="45.69062" lon="6.52104">
        <ele>1929</ele>
        <time>2023-06-03T17:06:14Z</time>
      </trkpt>
      <trkpt lat="45.69059" lon="6.52175">
        <ele>1916</ele>
        <time>2023-06-03T17:06:39Z</time>
      </trkpt>
      <trkpt lat="45.69066" lon="6.52241">
        <ele>1904</ele>
        <time>2023-06-03T17:07:03Z</time>
      </trkpt>
      <trkpt lat="45.69083" lon="6.52296">
        <ele>1896</ele>
        <time>2023-06-03T17:07:24Z</time>
      </trkpt>
      <trkpt lat="45.69108" lon="6.52346">
        <ele>1887</ele>
        <time>2023-06-03T17:07:45Z</time>
      </trkpt>
      <trkpt lat="45.69134" lon="6.52389">
        <ele>1882</ele>
        <time>2023-06-03T17:08:05Z</time>
      </trkpt>
      <trkpt lat="45.6912" lon="6.52465">
        <ele>1862</ele>
        <time>2023-06-03T17:08:32Z</time>
      </trkpt>
      <trkpt lat="45.69158" lon="6.52507">
        <ele>1856</ele>
        <time>2023-06-03T17:08:56Z</time>
      </trkpt>
      <trkpt lat="45.69185" lon="6.52589">
        <ele>1850</ele>
        <time>2023-06-03T17:09:28Z</time>
      </trkpt>
      <trkpt lat="45.69198" lon="6.52662">
        <ele>1844</ele>
        <time>2023-06-03T17:09:54Z</time>
      </trkpt>
      <trkpt lat="45.69164" lon="6.52638">
        <ele>1835</ele>
        <time>2023-06-03T17:10:13Z</time>
      </trkpt>
      <trkpt lat="45.69126" lon="6.52576">
        <ele>1839</ele>
        <time>2023-06-03T17:10:42Z</time>
      </trkpt>
      <trkpt lat="45.69075" lon="6.52559">
        <ele>1837</ele>
        <time>2023-06-03T17:11:08Z</time>
      </trkpt>
      <trkpt lat="45.69035" lon="6.5252">
        <ele>1842</ele>
        <time>2023-06-03T17:11:33Z</time>
      </trkpt>
      <trkpt lat="45.68998" lon="6.52489">
        <ele>1845</ele>
        <time>2023-06-03T17:11:54Z</time>
      </trkpt>
      <trkpt lat="45.68959" lon="6.52472">
        <ele>1843</ele>
        <time>2023-06-03T17:12:15Z</time>
      </trkpt>
      <trkpt lat="45.6892" lon="6.52449">
        <ele>1841</ele>
        <time>2023-06-03T17:12:36Z</time>
      </trkpt>
      <trkpt lat="45.68888" lon="6.52482">
        <ele>1834</ele>
        <time>2023-06-03T17:12:55Z</time>
      </trkpt>
      <trkpt lat="45.68859" lon="6.52518">
        <ele>1826</ele>
        <time>2023-06-03T17:13:15Z</time>
      </trkpt>
      <trkpt lat="45.68819" lon="6.52537">
        <ele>1828</ele>
        <time>2023-06-03T17:13:36Z</time>
      </trkpt>
      <trkpt lat="45.68777" lon="6.52561">
        <ele>1844</ele>
        <time>2023-06-03T17:13:58Z</time>
      </trkpt>
      <trkpt lat="45.68679" lon="6.52557">
        <ele>1877</ele>
        <time>2023-06-03T17:14:47Z</time>
      </trkpt>
      <trkpt lat="45.68652" lon="6.52544">
        <ele>1886</ele>
        <time>2023-06-03T17:15:02Z</time>
      </trkpt>
      <trkpt lat="45.68631" lon="6.52524">
        <ele>1893</ele>
        <time>2023-06-03T17:15:14Z</time>
      </trkpt>
      <trkpt lat="45.68586" lon="6.5256">
        <ele>1904</ele>
        <time>2023-06-03T17:15:40Z</time>
      </trkpt>
      <trkpt lat="45.68566" lon="6.52605">
        <ele>1910</ele>
        <time>2023-06-03T17:15:59Z</time>
      </trkpt>
      <trkpt lat="45.68568" lon="6.52636">
        <ele>1912</ele>
        <time>2023-06-03T17:16:10Z</time>
      </trkpt>
      <trkpt lat="45.68583" lon="6.52677">
        <ele>1912</ele>
        <time>2023-06-03T17:16:26Z</time>
      </trkpt>
      <trkpt lat="45.6856" lon="6.52722">
        <ele>1912</ele>
        <time>2023-06-03T17:16:45Z</time>
      </trkpt>
      <trkpt lat="45.68538" lon="6.52735">
        <ele>1912</ele>
        <time>2023-06-03T17:16:57Z</time>
      </trkpt>
      <trkpt lat="45.68519" lon="6.52757">
        <ele>1909</ele>
        <time>2023-06-03T17:17:09Z</time>
      </trkpt>
      <trkpt lat="45.68458" lon="6.52804">
        <ele>1895</ele>
        <time>2023-06-03T17:17:44Z</time>
      </trkpt>
      <trkpt lat="45.68429" lon="6.52805">
        <ele>1892</ele>
        <time>2023-06-03T17:17:59Z</time>
      </trkpt>
      <trkpt lat="45.68405" lon="6.52896">
        <ele>1872</ele>
        <time>2023-06-03T17:18:33Z</time>
      </trkpt>
      <trkpt lat="45.68417" lon="6.5292">
        <ele>1868</ele>
        <time>2023-06-03T17:18:43Z</time>
      </trkpt>
      <trkpt lat="45.68434" lon="6.53011">
        <ele>1851</ele>
        <time>2023-06-03T17:19:16Z</time>
      </trkpt>
      <trkpt lat="45.68426" lon="6.53041">
        <ele>1844</ele>
        <time>2023-06-03T17:19:27Z</time>
      </trkpt>
      <trkpt lat="45.68403" lon="6.53074">
        <ele>1836</ele>
        <time>2023-06-03T17:19:43Z</time>
      </trkpt>
      <trkpt lat="45.68377" lon="6.5309">
        <ele>1830</ele>
        <time>2023-06-03T17:19:58Z</time>
      </trkpt>
      <trkpt lat="45.68373" lon="6.53121">
        <ele>1823</ele>
        <time>2023-06-03T17:20:09Z</time>
      </trkpt>
      <trkpt lat="45.6836" lon="6.53159">
        <ele>1814</ele>
        <time>2023-06-03T17:20:23Z</time>
      </trkpt>
      <trkpt lat="45.68348" lon="6.5324">
        <ele>1798</ele>
        <time>2023-06-03T17:20:52Z</time>
      </trkpt>
      <trkpt lat="45.68336" lon="6.53269">
        <ele>1794</ele>
        <time>2023-06-03T17:21:04Z</time>
      </trkpt>
      <trkpt lat="45.68332" lon="6.53302">
        <ele>1790</ele>
        <time>2023-06-03T17:21:16Z</time>
      </trkpt>
      <trkpt lat="45.68327" lon="6.5332">
        <ele>1787</ele>
        <time>2023-06-03T17:21:23Z</time>
      </trkpt>
      <trkpt lat="45.68338" lon="6.53358">
        <ele>1783</ele>
        <time>2023-06-03T17:21:37Z</time>
      </trkpt>
      <trkpt lat="45.68353" lon="6.53398">
        <ele>1774</ele>
        <time>2023-06-03T17:21:53Z</time>
      </trkpt>
      <trkpt lat="45.68411" lon="6.535">
        <ele>1750</ele>
        <time>2023-06-03T17:22:39Z</time>
      </trkpt>
      <trkpt lat="45.68449" lon="6.53557">
        <ele>1735</ele>
        <time>2023-06-03T17:23:06Z</time>
      </trkpt>
      <trkpt lat="45.68475" lon="6.53577">
        <ele>1727</ele>
        <time>2023-06-03T17:23:21Z</time>
      </trkpt>
      <trkpt lat="45.68505" lon="6.53615">
        <ele>1715</ele>
        <time>2023-06-03T17:23:41Z</time>
      </trkpt>
      <trkpt lat="45.68532" lon="6.53628">
        <ele>1705</ele>
        <time>2023-06-03T17:23:55Z</time>
      </trkpt>
      <trkpt lat="45.68552" lon="6.53622">
        <ele>1700</ele>
        <time>2023-06-03T17:24:06Z</time>
      </trkpt>
      <trkpt lat="45.68542" lon="6.53665">
        <ele>1697</ele>
        <time>2023-06-03T17:24:21Z</time>
      </trkpt>
      <trkpt lat="45.68527" lon="6.53681">
        <ele>1696</ele>
        <time>2023-06-03T17:24:31Z</time>
      </trkpt>
      <trkpt lat="45.68498" lon="6.53723">
        <ele>1688</ele>
        <time>2023-06-03T17:24:51Z</time>
      </trkpt>
      <trkpt lat="45.685" lon="6.53731">
        <ele>1685</ele>
        <time>2023-06-03T17:24:54Z</time>
      </trkpt>
      <trkpt lat="45.68448" lon="6.53776">
        <ele>1675</ele>
        <time>2023-06-03T17:25:25Z</time>
      </trkpt>
      <trkpt lat="45.6846" lon="6.53795">
        <ele>1665</ele>
        <time>2023-06-03T17:25:34Z</time>
      </trkpt>
      <trkpt lat="45.68482" lon="6.53812">
        <ele>1656</ele>
        <time>2023-06-03T17:25:46Z</time>
      </trkpt>
      <trkpt lat="45.68461" lon="6.53839">
        <ele>1647</ele>
        <time>2023-06-03T17:26:00Z</time>
      </trkpt>
      <trkpt lat="45.68415" lon="6.53872">
        <ele>1638</ele>
        <time>2023-06-03T17:26:26Z</time>
      </trkpt>
      <trkpt lat="45.68361" lon="6.53899">
        <ele>1627</ele>
        <time>2023-06-03T17:26:55Z</time>
      </trkpt>
      <trkpt lat="45.68351" lon="6.53908">
        <ele>1623</ele>
        <time>2023-06-03T17:27:01Z</time>
      </trkpt>
      <trkpt lat="45.68339" lon="6.53926">
        <ele>1615</ele>
        <time>2023-06-03T17:27:09Z</time>
      </trkpt>
      <trkpt lat="45.68306" lon="6.53914">
        <ele>1615</ele>
        <time>2023-06-03T17:27:26Z</time>
      </trkpt>
      <trkpt lat="45.68302" lon="6.53925">
        <ele>1609</ele>
        <time>2023-06-03T17:27:31Z</time>
      </trkpt>
      <trkpt lat="45.68292" lon="6.53925">
        <ele>1607</ele>
        <time>2023-06-03T17:27:36Z</time>
      </trkpt>
      <trkpt lat="45.68291" lon="6.53938">
        <ele>1601</ele>
        <time>2023-06-03T17:27:40Z</time>
      </trkpt>
      <trkpt lat="45.68275" lon="6.53941">
        <ele>1597</ele>
        <time>2023-06-03T17:27:48Z</time>
      </trkpt>
      <trkpt lat="45.68275" lon="6.53952">
        <ele>1592</ele>
        <time>2023-06-03T17:27:52Z</time>
      </trkpt>
      <trkpt lat="45.68268" lon="6.5396">
        <ele>1587</ele>
        <time>2023-06-03T17:27:57Z</time>
      </trkpt>
      <trkpt lat="45.68291" lon="6.53996">
        <ele>1575</ele>
        <time>2023-06-03T17:28:14Z</time>
      </trkpt>
      <trkpt lat="45.68288" lon="6.54022">
        <ele>1566</ele>
        <time>2023-06-03T17:28:23Z</time>
      </trkpt>
      <trkpt lat="45.68274" lon="6.54017">
        <ele>1566</ele>
        <time>2023-06-03T17:28:30Z</time>
      </trkpt>
      <trkpt lat="45.68203" lon="6.53965">
        <ele>1572</ele>
        <time>2023-06-03T17:29:10Z</time>
      </trkpt>
      <trkpt lat="45.68176" lon="6.53957">
        <ele>1568</ele>
        <time>2023-06-03T17:29:24Z</time>
      </trkpt>
      <trkpt lat="45.68164" lon="6.53957">
        <ele>1565</ele>
        <time>2023-06-03T17:29:30Z</time>
      </trkpt>
      <trkpt lat="45.68148" lon="6.53926">
        <ele>1565</ele>
        <time>2023-06-03T17:29:43Z</time>
      </trkpt>
      <trkpt lat="45.68134" lon="6.53863">
        <ele>1579</ele>
        <time>2023-06-03T17:30:07Z</time>
      </trkpt>
      <trkpt lat="45.68119" lon="6.53834">
        <ele>1579</ele>
        <time>2023-06-03T17:30:19Z</time>
      </trkpt>
      <trkpt lat="45.68097" lon="6.538">
        <ele>1579</ele>
        <time>2023-06-03T17:30:35Z</time>
      </trkpt>
      <trkpt lat="45.68068" lon="6.53782">
        <ele>1569</ele>
        <time>2023-06-03T17:30:51Z</time>
      </trkpt>
      <trkpt lat="45.68043" lon="6.5376">
        <ele>1563</ele>
        <time>2023-06-03T17:31:06Z</time>
      </trkpt>
      <trkpt lat="45.68033" lon="6.53781">
        <ele>1549</ele>
        <time>2023-06-03T17:31:15Z</time>
      </trkpt>
      <trkpt lat="45.68023" lon="6.53783">
        <ele>1543</ele>
        <time>2023-06-03T17:31:20Z</time>
      </trkpt>
      <trkpt lat="45.67883" lon="6.53694">
        <ele>1504</ele>
        <time>2023-06-03T17:32:37Z</time>
      </trkpt>
      <trkpt lat="45.67842" lon="6.53681">
        <ele>1485</ele>
        <time>2023-06-03T17:32:58Z</time>
      </trkpt>
      <trkpt lat="45.67845" lon="6.53693">
        <ele>1483</ele>
        <time>2023-06-03T17:33:02Z</time>
      </trkpt>
      <trkpt lat="45.67821" lon="6.53716">
        <ele>1464</ele>
        <time>2023-06-03T17:33:16Z</time>
      </trkpt>
      <trkpt lat="45.67808" lon="6.5371">
        <ele>1459</ele>
        <time>2023-06-03T17:33:23Z</time>
      </trkpt>
      <trkpt lat="45.67724" lon="6.536">
        <ele>1424</ele>
        <time>2023-06-03T17:34:20Z</time>
      </trkpt>
      <trkpt lat="45.67719" lon="6.53574">
        <ele>1423</ele>
        <time>2023-06-03T17:34:30Z</time>
      </trkpt>
      <trkpt lat="45.67717" lon="6.53537">
        <ele>1429</ele>
        <time>2023-06-03T17:34:43Z</time>
      </trkpt>
      <trkpt lat="45.67697" lon="6.53518">
        <ele>1421</ele>
        <time>2023-06-03T17:34:55Z</time>
      </trkpt>
      <trkpt lat="45.67683" lon="6.53497">
        <ele>1417</ele>
        <time>2023-06-03T17:35:05Z</time>
      </trkpt>
      <trkpt lat="45.67663" lon="6.5344">
        <ele>1422</ele>
        <time>2023-06-03T17:35:27Z</time>
      </trkpt>
      <trkpt lat="45.67661" lon="6.53353">
        <ele>1437</ele>
        <time>2023-06-03T17:35:58Z</time>
      </trkpt>
      <trkpt lat="45.67682" lon="6.53362">
        <ele>1450</ele>
        <time>2023-06-03T17:36:09Z</time>
      </trkpt>
      <trkpt lat="45.67673" lon="6.53297">
        <ele>1453</ele>
        <time>2023-06-03T17:36:32Z</time>
      </trkpt>
      <trkpt lat="45.67694" lon="6.53316">
        <ele>1464</ele>
        <time>2023-06-03T17:36:44Z</time>
      </trkpt>
      <trkpt lat="45.67703" lon="6.53344">
        <ele>1466</ele>
        <time>2023-06-03T17:36:55Z</time>
      </trkpt>
      <trkpt lat="45.67719" lon="6.53243">
        <ele>1487</ele>
        <time>2023-06-03T17:37:31Z</time>
      </trkpt>
      <trkpt lat="45.67739" lon="6.53265">
        <ele>1497</ele>
        <time>2023-06-03T17:37:44Z</time>
      </trkpt>
      <trkpt lat="45.67744" lon="6.53255">
        <ele>1500</ele>
        <time>2023-06-03T17:37:48Z</time>
      </trkpt>
      <trkpt lat="45.67734" lon="6.53234">
        <ele>1496</ele>
        <time>2023-06-03T17:37:57Z</time>
      </trkpt>
      <trkpt lat="45.67733" lon="6.53215">
        <ele>1497</ele>
        <time>2023-06-03T17:38:04Z</time>
      </trkpt>
      <trkpt lat="45.67741" lon="6.53202">
        <ele>1502</ele>
        <time>2023-06-03T17:38:10Z</time>
      </trkpt>
      <trkpt lat="45.67756" lon="6.532">
        <ele>1510</ele>
        <time>2023-06-03T17:38:17Z</time>
      </trkpt>
      <trkpt lat="45.67763" lon="6.53179">
        <ele>1516</ele>
        <time>2023-06-03T17:38:25Z</time>
      </trkpt>
      <trkpt lat="45.67767" lon="6.53151">
        <ele>1521</ele>
        <time>2023-06-03T17:38:35Z</time>
      </trkpt>
      <trkpt lat="45.67752" lon="6.5312">
        <ele>1514</ele>
        <time>2023-06-03T17:38:48Z</time>
      </trkpt>
      <trkpt lat="45.67758" lon="6.53107">
        <ele>1519</ele>
        <time>2023-06-03T17:38:54Z</time>
      </trkpt>
      <trkpt lat="45.67771" lon="6.5309">
        <ele>1527</ele>
        <time>2023-06-03T17:39:03Z</time>
      </trkpt>
      <trkpt lat="45.67771" lon="6.53058">
        <ele>1526</ele>
        <time>2023-06-03T17:39:14Z</time>
      </trkpt>
      <trkpt lat="45.67793" lon="6.53037">
        <ele>1537</ele>
        <time>2023-06-03T17:39:27Z</time>
      </trkpt>
      <trkpt lat="45.67811" lon="6.52997">
        <ele>1547</ele>
        <time>2023-06-03T17:39:44Z</time>
      </trkpt>
      <trkpt lat="45.67823" lon="6.52991">
        <ele>1554</ele>
        <time>2023-06-03T17:39:50Z</time>
      </trkpt>
      <trkpt lat="45.67845" lon="6.53002">
        <ele>1569</ele>
        <time>2023-06-03T17:40:02Z</time>
      </trkpt>
      <trkpt lat="45.67847" lon="6.53026">
        <ele>1569</ele>
        <time>2023-06-03T17:40:10Z</time>
      </trkpt>
      <trkpt lat="45.67853" lon="6.52996">
        <ele>1574</ele>
        <time>2023-06-03T17:40:21Z</time>
      </trkpt>
      <trkpt lat="45.67869" lon="6.52979">
        <ele>1585</ele>
        <time>2023-06-03T17:40:31Z</time>
      </trkpt>
      <trkpt lat="45.67869" lon="6.52895">
        <ele>1584</ele>
        <time>2023-06-03T17:41:01Z</time>
      </trkpt>
      <trkpt lat="45.67888" lon="6.52867">
        <ele>1596</ele>
        <time>2023-06-03T17:41:14Z</time>
      </trkpt>
      <trkpt lat="45.67894" lon="6.52882">
        <ele>1602</ele>
        <time>2023-06-03T17:41:20Z</time>
      </trkpt>
      <trkpt lat="45.67899" lon="6.5291">
        <ele>1607</ele>
        <time>2023-06-03T17:41:30Z</time>
      </trkpt>
      <trkpt lat="45.67905" lon="6.52926">
        <ele>1611</ele>
        <time>2023-06-03T17:41:37Z</time>
      </trkpt>
      <trkpt lat="45.67911" lon="6.52925">
        <ele>1616</ele>
        <time>2023-06-03T17:41:40Z</time>
      </trkpt>
      <trkpt lat="45.6793" lon="6.52819">
        <ele>1624</ele>
        <time>2023-06-03T17:42:18Z</time>
      </trkpt>
      <trkpt lat="45.67951" lon="6.52775">
        <ele>1635</ele>
        <time>2023-06-03T17:42:37Z</time>
      </trkpt>
      <trkpt lat="45.67951" lon="6.52808">
        <ele>1639</ele>
        <time>2023-06-03T17:42:48Z</time>
      </trkpt>
      <trkpt lat="45.67968" lon="6.52777">
        <ele>1649</ele>
        <time>2023-06-03T17:43:02Z</time>
      </trkpt>
      <trkpt lat="45.67975" lon="6.52845">
        <ele>1661</ele>
        <time>2023-06-03T17:43:26Z</time>
      </trkpt>
      <trkpt lat="45.68029" lon="6.52948">
        <ele>1690</ele>
        <time>2023-06-03T17:44:11Z</time>
      </trkpt>
      <trkpt lat="45.68037" lon="6.52937">
        <ele>1694</ele>
        <time>2023-06-03T17:44:17Z</time>
      </trkpt>
      <trkpt lat="45.68066" lon="6.5298">
        <ele>1701</ele>
        <time>2023-06-03T17:44:37Z</time>
      </trkpt>
      <trkpt lat="45.68097" lon="6.5302">
        <ele>1711</ele>
        <time>2023-06-03T17:44:58Z</time>
      </trkpt>
      <trkpt lat="45.681" lon="6.53002">
        <ele>1714</ele>
        <time>2023-06-03T17:45:05Z</time>
      </trkpt>
      <trkpt lat="45.68126" lon="6.53033">
        <ele>1726</ele>
        <time>2023-06-03T17:45:22Z</time>
      </trkpt>
      <trkpt lat="45.68112" lon="6.52994">
        <ele>1722</ele>
        <time>2023-06-03T17:45:37Z</time>
      </trkpt>
      <trkpt lat="45.68101" lon="6.52947">
        <ele>1722</ele>
        <time>2023-06-03T17:45:54Z</time>
      </trkpt>
      <trkpt lat="45.68098" lon="6.52916">
        <ele>1724</ele>
        <time>2023-06-03T17:46:05Z</time>
      </trkpt>
      <trkpt lat="45.68102" lon="6.52888">
        <ele>1728</ele>
        <time>2023-06-03T17:46:15Z</time>
      </trkpt>
      <trkpt lat="45.68104" lon="6.52846">
        <ele>1733</ele>
        <time>2023-06-03T17:46:30Z</time>
      </trkpt>
      <trkpt lat="45.68094" lon="6.52789">
        <ele>1728</ele>
        <time>2023-06-03T17:46:51Z</time>
      </trkpt>
      <trkpt lat="45.68124" lon="6.52716">
        <ele>1746</ele>
        <time>2023-06-03T17:47:20Z</time>
      </trkpt>
      <trkpt lat="45.68128" lon="6.52622">
        <ele>1746</ele>
        <time>2023-06-03T17:47:53Z</time>
      </trkpt>
      <trkpt lat="45.68116" lon="6.52581">
        <ele>1737</ele>
        <time>2023-06-03T17:48:09Z</time>
      </trkpt>
      <trkpt lat="45.68114" lon="6.52557">
        <ele>1735</ele>
        <time>2023-06-03T17:48:17Z</time>
      </trkpt>
      <trkpt lat="45.68121" lon="6.52538">
        <ele>1739</ele>
        <time>2023-06-03T17:48:25Z</time>
      </trkpt>
      <trkpt lat="45.68102" lon="6.52531">
        <ele>1727</ele>
        <time>2023-06-03T17:48:34Z</time>
      </trkpt>
      <trkpt lat="45.68093" lon="6.52525">
        <ele>1722</ele>
        <time>2023-06-03T17:48:39Z</time>
      </trkpt>
      <trkpt lat="45.68077" lon="6.52493">
        <ele>1713</ele>
        <time>2023-06-03T17:48:53Z</time>
      </trkpt>
      <trkpt lat="45.68066" lon="6.5246">
        <ele>1709</ele>
        <time>2023-06-03T17:49:06Z</time>
      </trkpt>
      <trkpt lat="45.68042" lon="6.52359">
        <ele>1699</ele>
        <time>2023-06-03T17:49:43Z</time>
      </trkpt>
      <trkpt lat="45.68027" lon="6.52319">
        <ele>1689</ele>
        <time>2023-06-03T17:49:59Z</time>
      </trkpt>
      <trkpt lat="45.68019" lon="6.5227">
        <ele>1691</ele>
        <time>2023-06-03T17:50:17Z</time>
      </trkpt>
      <trkpt lat="45.68003" lon="6.52227">
        <ele>1681</ele>
        <time>2023-06-03T17:50:34Z</time>
      </trkpt>
      <trkpt lat="45.68002" lon="6.5219">
        <ele>1684</ele>
        <time>2023-06-03T17:50:47Z</time>
      </trkpt>
      <trkpt lat="45.6799" lon="6.52157">
        <ele>1677</ele>
        <time>2023-06-03T17:51:00Z</time>
      </trkpt>
      <trkpt lat="45.6799" lon="6.52116">
        <ele>1684</ele>
        <time>2023-06-03T17:51:14Z</time>
      </trkpt>
      <trkpt lat="45.6798" lon="6.5208">
        <ele>1681</ele>
        <time>2023-06-03T17:51:28Z</time>
      </trkpt>
      <trkpt lat="45.6795" lon="6.52">
        <ele>1670</ele>
        <time>2023-06-03T17:51:59Z</time>
      </trkpt>
      <trkpt lat="45.67944" lon="6.51964">
        <ele>1681</ele>
        <time>2023-06-03T17:52:12Z</time>
      </trkpt>
      <trkpt lat="45.679" lon="6.51865">
        <ele>1687</ele>
        <time>2023-06-03T17:52:53Z</time>
      </trkpt>
      <trkpt lat="45.67879" lon="6.51833">
        <ele>1683</ele>
        <time>2023-06-03T17:53:09Z</time>
      </trkpt>
      <trkpt lat="45.67871" lon="6.51788">
        <ele>1694</ele>
        <time>2023-06-03T17:53:25Z</time>
      </trkpt>
      <trkpt lat="45.67848" lon="6.51739">
        <ele>1695</ele>
        <time>2023-06-03T17:53:45Z</time>
      </trkpt>
      <trkpt lat="45.67823" lon="6.51716">
        <ele>1691</ele>
        <time>2023-06-03T17:54:00Z</time>
      </trkpt>
      <trkpt lat="45.67802" lon="6.51684">
        <ele>1695</ele>
        <time>2023-06-03T17:54:16Z</time>
      </trkpt>
      <trkpt lat="45.67802" lon="6.51668">
        <ele>1702</ele>
        <time>2023-06-03T17:54:21Z</time>
      </trkpt>
      <trkpt lat="45.67783" lon="6.51621">
        <ele>1711</ele>
        <time>2023-06-03T17:54:40Z</time>
      </trkpt>
      <trkpt lat="45.67769" lon="6.51598">
        <ele>1713</ele>
        <time>2023-06-03T17:54:51Z</time>
      </trkpt>
      <trkpt lat="45.67763" lon="6.51547">
        <ele>1726</ele>
        <time>2023-06-03T17:55:09Z</time>
      </trkpt>
      <trkpt lat="45.67749" lon="6.51526">
        <ele>1724</ele>
        <time>2023-06-03T17:55:19Z</time>
      </trkpt>
      <trkpt lat="45.67729" lon="6.51471">
        <ele>1736</ele>
        <time>2023-06-03T17:55:41Z</time>
      </trkpt>
      <trkpt lat="45.67736" lon="6.51445">
        <ele>1743</ele>
        <time>2023-06-03T17:55:51Z</time>
      </trkpt>
      <trkpt lat="45.67758" lon="6.51456">
        <ele>1746</ele>
        <time>2023-06-03T17:56:02Z</time>
      </trkpt>
      <trkpt lat="45.67778" lon="6.5143">
        <ele>1760</ele>
        <time>2023-06-03T17:56:16Z</time>
      </trkpt>
      <trkpt lat="45.67794" lon="6.51427">
        <ele>1767</ele>
        <time>2023-06-03T17:56:24Z</time>
      </trkpt>
      <trkpt lat="45.67811" lon="6.51417">
        <ele>1775</ele>
        <time>2023-06-03T17:56:33Z</time>
      </trkpt>
      <trkpt lat="45.67843" lon="6.51379">
        <ele>1794</ele>
        <time>2023-06-03T17:56:54Z</time>
      </trkpt>
      <trkpt lat="45.67867" lon="6.5138">
        <ele>1806</ele>
        <time>2023-06-03T17:57:06Z</time>
      </trkpt>
      <trkpt lat="45.6793" lon="6.51415">
        <ele>1837</ele>
        <time>2023-06-03T17:57:40Z</time>
      </trkpt>
      <trkpt lat="45.67962" lon="6.51421">
        <ele>1857</ele>
        <time>2023-06-03T17:57:56Z</time>
      </trkpt>
      <trkpt lat="45.67999" lon="6.51436">
        <ele>1878</ele>
        <time>2023-06-03T17:58:15Z</time>
      </trkpt>
      <trkpt lat="45.68019" lon="6.51468">
        <ele>1881</ele>
        <time>2023-06-03T17:58:30Z</time>
      </trkpt>
      <trkpt lat="45.68063" lon="6.51416">
        <ele>1904</ele>
        <time>2023-06-03T17:58:59Z</time>
      </trkpt>
      <trkpt lat="45.68089" lon="6.51395">
        <ele>1919</ele>
        <time>2023-06-03T17:59:14Z</time>
      </trkpt>
      <trkpt lat="45.68114" lon="6.51366">
        <ele>1937</ele>
        <time>2023-06-03T17:59:30Z</time>
      </trkpt>
      <trkpt lat="45.68149" lon="6.51336">
        <ele>1957</ele>
        <time>2023-06-03T17:59:50Z</time>
      </trkpt>
      <trkpt lat="45.68209" lon="6.51279">
        <ele>1990</ele>
        <time>2023-06-03T18:00:26Z</time>
      </trkpt>
      <trkpt lat="45.68227" lon="6.51253">
        <ele>2000</ele>
        <time>2023-06-03T18:00:39Z</time>
      </trkpt>
      <trkpt lat="45.68271" lon="6.51217">
        <ele>2020</ele>
        <time>2023-06-03T18:01:04Z</time>
      </trkpt>
      <trkpt lat="45.68283" lon="6.51183">
        <ele>2030</ele>
        <time>2023-06-03T18:01:18Z</time>
      </trkpt>
      <trkpt lat="45.68288" lon="6.51141">
        <ele>2037</ele>
        <time>2023-06-03T18:01:33Z</time>
      </trkpt>
      <trkpt lat="45.68267" lon="6.51132">
        <ele>2033</ele>
        <time>2023-06-03T18:01:43Z</time>
      </trkpt>
      <trkpt lat="45.68265" lon="6.51111">
        <ele>2034</ele>
        <time>2023-06-03T18:01:51Z</time>
      </trkpt>
      <trkpt lat="45.68268" lon="6.51086">
        <ele>2038</ele>
        <time>2023-06-03T18:02:00Z</time>
      </trkpt>
      <trkpt lat="45.68286" lon="6.51074">
        <ele>2043</ele>
        <time>2023-06-03T18:02:10Z</time>
      </trkpt>
      <trkpt lat="45.68313" lon="6.51062">
        <ele>2051</ele>
        <time>2023-06-03T18:02:24Z</time>
      </trkpt>
      <trkpt lat="45.68333" lon="6.51039">
        <ele>2059</ele>
        <time>2023-06-03T18:02:37Z</time>
      </trkpt>
      <trkpt lat="45.68326" lon="6.51019">
        <ele>2059</ele>
        <time>2023-06-03T18:02:45Z</time>
      </trkpt>
      <trkpt lat="45.68315" lon="6.51004">
        <ele>2058</ele>
        <time>2023-06-03T18:02:52Z</time>
      </trkpt>
      <trkpt lat="45.68329" lon="6.50973">
        <ele>2071</ele>
        <time>2023-06-03T18:03:05Z</time>
      </trkpt>
      <trkpt lat="45.68344" lon="6.50948">
        <ele>2085</ele>
        <time>2023-06-03T18:03:17Z</time>
      </trkpt>
      <trkpt lat="45.68355" lon="6.50922">
        <ele>2098</ele>
        <time>2023-06-03T18:03:27Z</time>
      </trkpt>
      <trkpt lat="45.68361" lon="6.50884">
        <ele>2111</ele>
        <time>2023-06-03T18:03:41Z</time>
      </trkpt>
      <trkpt lat="45.68431" lon="6.50796">
        <ele>2153</ele>
        <time>2023-06-03T18:04:27Z</time>
      </trkpt>
      <trkpt lat="45.68461" lon="6.50704">
        <ele>2177</ele>
        <time>2023-06-03T18:05:03Z</time>
      </trkpt>
      <trkpt lat="45.68479" lon="6.50608">
        <ele>2198</ele>
        <time>2023-06-03T18:05:38Z</time>
      </trkpt>
      <trkpt lat="45.68506" lon="6.50355">
        <ele>2238</ele>
        <time>2023-06-03T18:07:07Z</time>
      </trkpt>
      <trkpt lat="45.68537" lon="6.50271">
        <ele>2260</ele>
        <time>2023-06-03T18:07:40Z</time>
      </trkpt>
      <trkpt lat="45.6854" lon="6.50189">
        <ele>2280</ele>
        <time>2023-06-03T18:08:09Z</time>
      </trkpt>
      <trkpt lat="45.68549" lon="6.5012">
        <ele>2291</ele>
        <time>2023-06-03T18:08:34Z</time>
      </trkpt>
      <trkpt lat="45.68542" lon="6.50073">
        <ele>2306</ele>
        <time>2023-06-03T18:08:50Z</time>
      </trkpt>
      <trkpt lat="45.68527" lon="6.50027">
        <ele>2333</ele>
        <time>2023-06-03T18:09:08Z</time>
      </trkpt>
      <trkpt lat="45.68508" lon="6.50005">
        <ele>2358</ele>
        <time>2023-06-03T18:09:20Z</time>
      </trkpt>
      <trkpt lat="45.68458" lon="6.49935">
        <ele>2399</ele>
        <time>2023-06-03T18:09:55Z</time>
      </trkpt>
      <trkpt lat="45.68418" lon="6.49905">
        <ele>2420</ele>
        <time>2023-06-03T18:10:18Z</time>
      </trkpt>
      <trkpt lat="45.68364" lon="6.49816">
        <ele>2393</ele>
        <time>2023-06-03T18:10:59Z</time>
      </trkpt>
      <trkpt lat="45.68336" lon="6.49744">
        <ele>2395</ele>
        <time>2023-06-03T18:11:28Z</time>
      </trkpt>
      <trkpt lat="45.68312" lon="6.49668">
        <ele>2381</ele>
        <time>2023-06-03T18:11:57Z</time>
      </trkpt>
      <trkpt lat="45.68282" lon="6.49623">
        <ele>2377</ele>
        <time>2023-06-03T18:12:19Z</time>
      </trkpt>
      <trkpt lat="45.68246" lon="6.49596">
        <ele>2383</ele>
        <time>2023-06-03T18:12:39Z</time>
      </trkpt>
      <trkpt lat="45.68252" lon="6.4954">
        <ele>2391</ele>
        <time>2023-06-03T18:12:59Z</time>
      </trkpt>
      <trkpt lat="45.6825" lon="6.49478">
        <ele>2396</ele>
        <time>2023-06-03T18:13:21Z</time>
      </trkpt>
      <trkpt lat="45.68229" lon="6.4941">
        <ele>2392</ele>
        <time>2023-06-03T18:13:47Z</time>
      </trkpt>
      <trkpt lat="45.68223" lon="6.494">
        <ele>2389</ele>
        <time>2023-06-03T18:13:51Z</time>
      </trkpt>
      <trkpt lat="45.68223" lon="6.49367">
        <ele>2384</ele>
        <time>2023-06-03T18:14:03Z</time>
      </trkpt>
      <trkpt lat="45.68178" lon="6.49329">
        <ele>2383</ele>
        <time>2023-06-03T18:14:29Z</time>
      </trkpt>
      <trkpt lat="45.68151" lon="6.49317">
        <ele>2376</ele>
        <time>2023-06-03T18:14:43Z</time>
      </trkpt>
      <trkpt lat="45.68078" lon="6.49273">
        <ele>2359</ele>
        <time>2023-06-03T18:15:23Z</time>
      </trkpt>
      <trkpt lat="45.68054" lon="6.49253">
        <ele>2353</ele>
        <time>2023-06-03T18:15:37Z</time>
      </trkpt>
      <trkpt lat="45.68025" lon="6.49313">
        <ele>2349</ele>
        <time>2023-06-03T18:16:02Z</time>
      </trkpt>
      <trkpt lat="45.67985" lon="6.49526">
        <ele>2283</ele>
        <time>2023-06-03T18:17:19Z</time>
      </trkpt>
      <trkpt lat="45.67908" lon="6.49583">
        <ele>2268</ele>
        <time>2023-06-03T18:18:03Z</time>
      </trkpt>
      <trkpt lat="45.67835" lon="6.49673">
        <ele>2249</ele>
        <time>2023-06-03T18:18:51Z</time>
      </trkpt>
      <trkpt lat="45.67793" lon="6.49709">
        <ele>2253</ele>
        <time>2023-06-03T18:19:15Z</time>
      </trkpt>
      <trkpt lat="45.67751" lon="6.49772">
        <ele>2240</ele>
        <time>2023-06-03T18:19:46Z</time>
      </trkpt>
      <trkpt lat="45.67674" lon="6.49972">
        <ele>2214</ele>
        <time>2023-06-03T18:21:06Z</time>
      </trkpt>
      <trkpt lat="45.67644" lon="6.50034">
        <ele>2210</ele>
        <time>2023-06-03T18:21:32Z</time>
      </trkpt>
      <trkpt lat="45.67626" lon="6.50107">
        <ele>2192</ele>
        <time>2023-06-03T18:21:59Z</time>
      </trkpt>
      <trkpt lat="45.67592" lon="6.50194">
        <ele>2163</ele>
        <time>2023-06-03T18:22:34Z</time>
      </trkpt>
      <trkpt lat="45.67574" lon="6.50283">
        <ele>2132</ele>
        <time>2023-06-03T18:23:06Z</time>
      </trkpt>
      <trkpt lat="45.67508" lon="6.50382">
        <ele>2121</ele>
        <time>2023-06-03T18:23:54Z</time>
      </trkpt>
      <trkpt lat="45.67424" lon="6.50419">
        <ele>2106</ele>
        <time>2023-06-03T18:24:38Z</time>
      </trkpt>
      <trkpt lat="45.67363" lon="6.50368">
        <ele>2124</ele>
        <time>2023-06-03T18:25:14Z</time>
      </trkpt>
      <trkpt lat="45.67323" lon="6.50331">
        <ele>2140</ele>
        <time>2023-06-03T18:25:37Z</time>
      </trkpt>
      <trkpt lat="45.67304" lon="6.50309">
        <ele>2148</ele>
        <time>2023-06-03T18:25:50Z</time>
      </trkpt>
      <trkpt lat="45.67251" lon="6.5023">
        <ele>2170</ele>
        <time>2023-06-03T18:26:28Z</time>
      </trkpt>
      <trkpt lat="45.67233" lon="6.50177">
        <ele>2197</ele>
        <time>2023-06-03T18:26:49Z</time>
      </trkpt>
      <trkpt lat="45.67253" lon="6.50125">
        <ele>2210</ele>
        <time>2023-06-03T18:27:09Z</time>
      </trkpt>
      <trkpt lat="45.6728" lon="6.50105">
        <ele>2222</ele>
        <time>2023-06-03T18:27:25Z</time>
      </trkpt>
      <trkpt lat="45.67309" lon="6.50096">
        <ele>2232</ele>
        <time>2023-06-03T18:27:39Z</time>
      </trkpt>
      <trkpt lat="45.6735" lon="6.50114">
        <ele>2238</ele>
        <time>2023-06-03T18:28:01Z</time>
      </trkpt>
      <trkpt lat="45.67377" lon="6.50138">
        <ele>2239</ele>
        <time>2023-06-03T18:28:17Z</time>
      </trkpt>
      <trkpt lat="45.6743" lon="6.50158">
        <ele>2249</ele>
        <time>2023-06-03T18:28:44Z</time>
      </trkpt>
      <trkpt lat="45.67467" lon="6.5015">
        <ele>2257</ele>
        <time>2023-06-03T18:29:03Z</time>
      </trkpt>
      <trkpt lat="45.67458" lon="6.50087">
        <ele>2274</ele>
        <time>2023-06-03T18:29:25Z</time>
      </trkpt>
      <trkpt lat="45.67451" lon="6.50013">
        <ele>2289</ele>
        <time>2023-06-03T18:29:51Z</time>
      </trkpt>
      <trkpt lat="45.67485" lon="6.49976">
        <ele>2310</ele>
        <time>2023-06-03T18:30:13Z</time>
      </trkpt>
      <trkpt lat="45.67526" lon="6.49954">
        <ele>2314</ele>
        <time>2023-06-03T18:30:35Z</time>
      </trkpt>
      <trkpt lat="45.67547" lon="6.49913">
        <ele>2325</ele>
        <time>2023-06-03T18:30:53Z</time>
      </trkpt>
      <trkpt lat="45.67559" lon="6.49855">
        <ele>2339</ele>
        <time>2023-06-03T18:31:14Z</time>
      </trkpt>
      <trkpt lat="45.67561" lon="6.49817">
        <ele>2346</ele>
        <time>2023-06-03T18:31:27Z</time>
      </trkpt>
      <trkpt lat="45.67547" lon="6.498">
        <ele>2345</ele>
        <time>2023-06-03T18:31:36Z</time>
      </trkpt>
      <trkpt lat="45.67513" lon="6.49778">
        <ele>2338</ele>
        <time>2023-06-03T18:31:55Z</time>
      </trkpt>
      <trkpt lat="45.67422" lon="6.4978">
        <ele>2323</ele>
        <time>2023-06-03T18:32:40Z</time>
      </trkpt>
      <trkpt lat="45.67306" lon="6.49815">
        <ele>2313</ele>
        <time>2023-06-03T18:33:40Z</time>
      </trkpt>
      <trkpt lat="45.67252" lon="6.49852">
        <ele>2312</ele>
        <time>2023-06-03T18:34:10Z</time>
      </trkpt>
      <trkpt lat="45.67152" lon="6.49944">
        <ele>2309</ele>
        <time>2023-06-03T18:35:09Z</time>
      </trkpt>
      <trkpt lat="45.67106" lon="6.49975">
        <ele>2326</ele>
        <time>2023-06-03T18:35:35Z</time>
      </trkpt>
      <trkpt lat="45.6704" lon="6.50039">
        <ele>2354</ele>
        <time>2023-06-03T18:36:15Z</time>
      </trkpt>
      <trkpt lat="45.67011" lon="6.50054">
        <ele>2369</ele>
        <time>2023-06-03T18:36:30Z</time>
      </trkpt>
      <trkpt lat="45.66972" lon="6.50081">
        <ele>2387</ele>
        <time>2023-06-03T18:36:52Z</time>
      </trkpt>
      <trkpt lat="45.66901" lon="6.50074">
        <ele>2390</ele>
        <time>2023-06-03T18:37:27Z</time>
      </trkpt>
      <trkpt lat="45.66836" lon="6.50074">
        <ele>2409</ele>
        <time>2023-06-03T18:38:00Z</time>
      </trkpt>
      <trkpt lat="45.66803" lon="6.50098">
        <ele>2418</ele>
        <time>2023-06-03T18:38:18Z</time>
      </trkpt>
      <trkpt lat="45.66754" lon="6.50089">
        <ele>2433</ele>
        <time>2023-06-03T18:38:43Z</time>
      </trkpt>
      <trkpt lat="45.66742" lon="6.50138">
        <ele>2426</ele>
        <time>2023-06-03T18:39:01Z</time>
      </trkpt>
      <trkpt lat="45.66736" lon="6.50239">
        <ele>2405</ele>
        <time>2023-06-03T18:39:37Z</time>
      </trkpt>
      <trkpt lat="45.66716" lon="6.50323">
        <ele>2378</ele>
        <time>2023-06-03T18:40:08Z</time>
      </trkpt>
      <trkpt lat="45.66684" lon="6.50399">
        <ele>2366</ele>
        <time>2023-06-03T18:40:39Z</time>
      </trkpt>
      <trkpt lat="45.66667" lon="6.50524">
        <ele>2360</ele>
        <time>2023-06-03T18:41:23Z</time>
      </trkpt>
      <trkpt lat="45.66667" lon="6.5059">
        <ele>2354</ele>
        <time>2023-06-03T18:41:46Z</time>
      </trkpt>
      <trkpt lat="45.66648" lon="6.50657">
        <ele>2353</ele>
        <time>2023-06-03T18:42:12Z</time>
      </trkpt>
      <trkpt lat="45.66609" lon="6.50677">
        <ele>2354</ele>
        <time>2023-06-03T18:42:32Z</time>
      </trkpt>
      <trkpt lat="45.66577" lon="6.50679">
        <ele>2357</ele>
        <time>2023-06-03T18:42:48Z</time>
      </trkpt>
      <trkpt lat="45.66537" lon="6.50836">
        <ele>2298</ele>
        <time>2023-06-03T18:43:47Z</time>
      </trkpt>
      <trkpt lat="45.66504" lon="6.50876">
        <ele>2282</ele>
        <time>2023-06-03T18:44:08Z</time>
      </trkpt>
      <trkpt lat="45.66466" lon="6.50984">
        <ele>2228</ele>
        <time>2023-06-03T18:44:51Z</time>
      </trkpt>
      <trkpt lat="45.66437" lon="6.5102">
        <ele>2207</ele>
        <time>2023-06-03T18:45:10Z</time>
      </trkpt>
      <trkpt lat="45.6637" lon="6.51016">
        <ele>2203</ele>
        <time>2023-06-03T18:45:44Z</time>
      </trkpt>
      <trkpt lat="45.66309" lon="6.5104">
        <ele>2193</ele>
        <time>2023-06-03T18:46:15Z</time>
      </trkpt>
      <trkpt lat="45.66252" lon="6.51052">
        <ele>2191</ele>
        <time>2023-06-03T18:46:44Z</time>
      </trkpt>
      <trkpt lat="45.6618" lon="6.51033">
        <ele>2166</ele>
        <time>2023-06-03T18:47:21Z</time>
      </trkpt>
      <trkpt lat="45.6614" lon="6.51056">
        <ele>2142</ele>
        <time>2023-06-03T18:47:42Z</time>
      </trkpt>
      <trkpt lat="45.66132" lon="6.51128">
        <ele>2114</ele>
        <time>2023-06-03T18:48:08Z</time>
      </trkpt>
      <trkpt lat="45.66148" lon="6.51213">
        <ele>2090</ele>
        <time>2023-06-03T18:48:38Z</time>
      </trkpt>
      <trkpt lat="45.66166" lon="6.51273">
        <ele>2077</ele>
        <time>2023-06-03T18:49:01Z</time>
      </trkpt>
      <trkpt lat="45.66137" lon="6.51328">
        <ele>2050</ele>
        <time>2023-06-03T18:49:25Z</time>
      </trkpt>
      <trkpt lat="45.66114" lon="6.51348">
        <ele>2039</ele>
        <time>2023-06-03T18:49:39Z</time>
      </trkpt>
      <trkpt lat="45.66056" lon="6.51343">
        <ele>2024</ele>
        <time>2023-06-03T18:50:08Z</time>
      </trkpt>
      <trkpt lat="45.66003" lon="6.51368">
        <ele>2010</ele>
        <time>2023-06-03T18:50:36Z</time>
      </trkpt>
      <trkpt lat="45.65969" lon="6.51379">
        <ele>2001</ele>
        <time>2023-06-03T18:50:53Z</time>
      </trkpt>
      <trkpt lat="45.65913" lon="6.51377">
        <ele>1986</ele>
        <time>2023-06-03T18:51:21Z</time>
      </trkpt>
      <trkpt lat="45.65884" lon="6.51408">
        <ele>1978</ele>
        <time>2023-06-03T18:51:39Z</time>
      </trkpt>
      <trkpt lat="45.65856" lon="6.51444">
        <ele>1966</ele>
        <time>2023-06-03T18:51:58Z</time>
      </trkpt>
      <trkpt lat="45.65836" lon="6.51433">
        <ele>1961</ele>
        <time>2023-06-03T18:52:09Z</time>
      </trkpt>
      <trkpt lat="45.65819" lon="6.51408">
        <ele>1961</ele>
        <time>2023-06-03T18:52:21Z</time>
      </trkpt>
      <trkpt lat="45.65819" lon="6.51425">
        <ele>1959</ele>
        <time>2023-06-03T18:52:27Z</time>
      </trkpt>
      <trkpt lat="45.65758" lon="6.51518">
        <ele>1927</ele>
        <time>2023-06-03T18:53:12Z</time>
      </trkpt>
      <trkpt lat="45.65705" lon="6.51534">
        <ele>1916</ele>
        <time>2023-06-03T18:53:39Z</time>
      </trkpt>
      <trkpt lat="45.65648" lon="6.51581">
        <ele>1902</ele>
        <time>2023-06-03T18:54:12Z</time>
      </trkpt>
      <trkpt lat="45.65592" lon="6.51673">
        <ele>1887</ele>
        <time>2023-06-03T18:54:54Z</time>
      </trkpt>
      <trkpt lat="45.65565" lon="6.5176">
        <ele>1880</ele>
        <time>2023-06-03T18:55:28Z</time>
      </trkpt>
      <trkpt lat="45.65551" lon="6.51796">
        <ele>1880</ele>
        <time>2023-06-03T18:55:42Z</time>
      </trkpt>
      <trkpt lat="45.65519" lon="6.51953">
        <ele>1899</ele>
        <time>2023-06-03T18:56:39Z</time>
      </trkpt>
      <trkpt lat="45.6551" lon="6.52047">
        <ele>1917</ele>
        <time>2023-06-03T18:57:13Z</time>
      </trkpt>
      <trkpt lat="45.65544" lon="6.52101">
        <ele>1904</ele>
        <time>2023-06-03T18:57:38Z</time>
      </trkpt>
      <trkpt lat="45.65556" lon="6.52176">
        <ele>1907</ele>
        <time>2023-06-03T18:58:05Z</time>
      </trkpt>
      <trkpt lat="45.65582" lon="6.52234">
        <ele>1899</ele>
        <time>2023-06-03T18:58:29Z</time>
      </trkpt>
      <trkpt lat="45.65615" lon="6.52269">
        <ele>1884</ele>
        <time>2023-06-03T18:58:50Z</time>
      </trkpt>
      <trkpt lat="45.65609" lon="6.52375">
        <ele>1893</ele>
        <time>2023-06-03T18:59:27Z</time>
      </trkpt>
      <trkpt lat="45.65599" lon="6.5246">
        <ele>1896</ele>
        <time>2023-06-03T18:59:57Z</time>
      </trkpt>
      <trkpt lat="45.65616" lon="6.52554">
        <ele>1882</ele>
        <time>2023-06-03T19:00:31Z</time>
      </trkpt>
      <trkpt lat="45.6561" lon="6.52591">
        <ele>1884</ele>
        <time>2023-06-03T19:00:44Z</time>
      </trkpt>
      <trkpt lat="45.65636" lon="6.52665">
        <ele>1870</ele>
        <time>2023-06-03T19:01:13Z</time>
      </trkpt>
      <trkpt lat="45.65662" lon="6.52727">
        <ele>1859</ele>
        <time>2023-06-03T19:01:38Z</time>
      </trkpt>
      <trkpt lat="45.65703" lon="6.52884">
        <ele>1838</ele>
        <time>2023-06-03T19:02:37Z</time>
      </trkpt>
      <trkpt lat="45.65758" lon="6.52943">
        <ele>1812</ele>
        <time>2023-06-03T19:03:11Z</time>
      </trkpt>
      <trkpt lat="45.65785" lon="6.52996">
        <ele>1800</ele>
        <time>2023-06-03T19:03:34Z</time>
      </trkpt>
      <trkpt lat="45.65816" lon="6.52986">
        <ele>1787</ele>
        <time>2023-06-03T19:03:50Z</time>
      </trkpt>
      <trkpt lat="45.65836" lon="6.52988">
        <ele>1778</ele>
        <time>2023-06-03T19:04:00Z</time>
      </trkpt>
      <trkpt lat="45.65841" lon="6.53055">
        <ele>1773</ele>
        <time>2023-06-03T19:04:24Z</time>
      </trkpt>
      <trkpt lat="45.6586" lon="6.5312">
        <ele>1764</ele>
        <time>2023-06-03T19:04:49Z</time>
      </trkpt>
      <trkpt lat="45.65915" lon="6.53216">
        <ele>1740</ele>
        <time>2023-06-03T19:05:32Z</time>
      </trkpt>
      <trkpt lat="45.65973" lon="6.53331">
        <ele>1726</ele>
        <time>2023-06-03T19:06:22Z</time>
      </trkpt>
      <trkpt lat="45.66109" lon="6.53449">
        <ele>1697</ele>
        <time>2023-06-03T19:07:41Z</time>
      </trkpt>
      <trkpt lat="45.66156" lon="6.53468">
        <ele>1682</ele>
        <time>2023-06-03T19:08:06Z</time>
      </trkpt>
      <trkpt lat="45.66169" lon="6.53432">
        <ele>1668</ele>
        <time>2023-06-03T19:08:20Z</time>
      </trkpt>
      <trkpt lat="45.66195" lon="6.53454">
        <ele>1662</ele>
        <time>2023-06-03T19:08:35Z</time>
      </trkpt>
      <trkpt lat="45.66237" lon="6.5345">
        <ele>1645</ele>
        <time>2023-06-03T19:08:56Z</time>
      </trkpt>
      <trkpt lat="45.66288" lon="6.53449">
        <ele>1623</ele>
        <time>2023-06-03T19:09:21Z</time>
      </trkpt>
      <trkpt lat="45.66314" lon="6.53503">
        <ele>1614</ele>
        <time>2023-06-03T19:09:44Z</time>
      </trkpt>
      <trkpt lat="45.66331" lon="6.53452">
        <ele>1605</ele>
        <time>2023-06-03T19:10:04Z</time>
      </trkpt>
      <trkpt lat="45.66359" lon="6.53492">
        <ele>1595</ele>
        <time>2023-06-03T19:10:24Z</time>
      </trkpt>
      <trkpt lat="45.66354" lon="6.53425">
        <ele>1595</ele>
        <time>2023-06-03T19:10:48Z</time>
      </trkpt>
      <trkpt lat="45.66377" lon="6.534">
        <ele>1582</ele>
        <time>2023-06-03T19:11:02Z</time>
      </trkpt>
      <trkpt lat="45.66417" lon="6.53449">
        <ele>1568</ele>
        <time>2023-06-03T19:11:28Z</time>
      </trkpt>
      <trkpt lat="45.66464" lon="6.53477">
        <ele>1546</ele>
        <time>2023-06-03T19:11:54Z</time>
      </trkpt>
      <trkpt lat="45.66483" lon="6.53546">
        <ele>1538</ele>
        <time>2023-06-03T19:12:20Z</time>
      </trkpt>
      <trkpt lat="45.66494" lon="6.53607">
        <ele>1531</ele>
        <time>2023-06-03T19:12:42Z</time>
      </trkpt>
      <trkpt lat="45.66529" lon="6.53643">
        <ele>1518</ele>
        <time>2023-06-03T19:13:03Z</time>
      </trkpt>
      <trkpt lat="45.66625" lon="6.5369">
        <ele>1486</ele>
        <time>2023-06-03T19:13:54Z</time>
      </trkpt>
      <trkpt lat="45.6662" lon="6.53735">
        <ele>1478</ele>
        <time>2023-06-03T19:14:10Z</time>
      </trkpt>
      <trkpt lat="45.66628" lon="6.53759">
        <ele>1472</ele>
        <time>2023-06-03T19:14:19Z</time>
      </trkpt>
      <trkpt lat="45.66679" lon="6.53737">
        <ele>1464</ele>
        <time>2023-06-03T19:14:46Z</time>
      </trkpt>
      <trkpt lat="45.66691" lon="6.53777">
        <ele>1453</ele>
        <time>2023-06-03T19:15:01Z</time>
      </trkpt>
      <trkpt lat="45.66683" lon="6.53829">
        <ele>1446</ele>
        <time>2023-06-03T19:15:20Z</time>
      </trkpt>
      <trkpt lat="45.66679" lon="6.53889">
        <ele>1435</ele>
        <time>2023-06-03T19:15:41Z</time>
      </trkpt>
      <trkpt lat="45.66691" lon="6.53934">
        <ele>1419</ele>
        <time>2023-06-03T19:15:58Z</time>
      </trkpt>
      <trkpt lat="45.66729" lon="6.53925">
        <ele>1405</ele>
        <time>2023-06-03T19:16:17Z</time>
      </trkpt>
      <trkpt lat="45.66752" lon="6.53941">
        <ele>1390</ele>
        <time>2023-06-03T19:16:30Z</time>
      </trkpt>
      <trkpt lat="45.66781" lon="6.5397">
        <ele>1368</ele>
        <time>2023-06-03T19:16:48Z</time>
      </trkpt>
      <trkpt lat="45.66866" lon="6.53997">
        <ele>1327</ele>
        <time>2023-06-03T19:17:31Z</time>
      </trkpt>
      <trkpt lat="45.66896" lon="6.53995">
        <ele>1315</ele>
        <time>2023-06-03T19:17:46Z</time>
      </trkpt>
      <trkpt lat="45.66918" lon="6.53961">
        <ele>1305</ele>
        <time>2023-06-03T19:18:02Z</time>
      </trkpt>
      <trkpt lat="45.66904" lon="6.53898">
        <ele>1314</ele>
        <time>2023-06-03T19:18:25Z</time>
      </trkpt>
      <trkpt lat="45.66928" lon="6.53892">
        <ele>1301</ele>
        <time>2023-06-03T19:18:38Z</time>
      </trkpt>
      <trkpt lat="45.66948" lon="6.53947">
        <ele>1290</ele>
        <time>2023-06-03T19:18:59Z</time>
      </trkpt>
      <trkpt lat="45.66957" lon="6.53918">
        <ele>1286</ele>
        <time>2023-06-03T19:19:10Z</time>
      </trkpt>
      <trkpt lat="45.66997" lon="6.5397">
        <ele>1264</ele>
        <time>2023-06-03T19:19:37Z</time>
      </trkpt>
      <trkpt lat="45.67043" lon="6.53986">
        <ele>1243</ele>
        <time>2023-06-03T19:20:01Z</time>
      </trkpt>
      <trkpt lat="45.67124" lon="6.54058">
        <ele>1213</ele>
        <time>2023-06-03T19:20:49Z</time>
      </trkpt>
      <trkpt lat="45.6717" lon="6.54051">
        <ele>1206</ele>
        <time>2023-06-03T19:21:12Z</time>
      </trkpt>
      <trkpt lat="45.67215" lon="6.54048">
        <ele>1201</ele>
        <time>2023-06-03T19:21:35Z</time>
      </trkpt>
      <trkpt lat="45.67254" lon="6.53999">
        <ele>1202</ele>
        <time>2023-06-03T19:22:01Z</time>
      </trkpt>
      <trkpt lat="45.67286" lon="6.5395">
        <ele>1207</ele>
        <time>2023-06-03T19:22:24Z</time>
      </trkpt>
      <trkpt lat="45.67301" lon="6.53856">
        <ele>1214</ele>
        <time>2023-06-03T19:22:58Z</time>
      </trkpt>
      <trkpt lat="45.67332" lon="6.53851">
        <ele>1213</ele>
        <time>2023-06-03T19:23:13Z</time>
      </trkpt>
      <trkpt lat="45.67441" lon="6.54049">
        <ele>1232</ele>
        <time>2023-06-03T19:24:41Z</time>
      </trkpt>
      <trkpt lat="45.67427" lon="6.54143">
        <ele>1226</ele>
        <time>2023-06-03T19:25:15Z</time>
      </trkpt>
      <trkpt lat="45.67442" lon="6.54295">
        <ele>1235</ele>
        <time>2023-06-03T19:26:09Z</time>
      </trkpt>
      <trkpt lat="45.6746" lon="6.54351">
        <ele>1239</ele>
        <time>2023-06-03T19:26:30Z</time>
      </trkpt>
      <trkpt lat="45.67486" lon="6.54405">
        <ele>1240</ele>
        <time>2023-06-03T19:26:53Z</time>
      </trkpt>
      <trkpt lat="45.6752" lon="6.54418">
        <ele>1250</ele>
        <time>2023-06-03T19:27:11Z</time>
      </trkpt>
      <trkpt lat="45.67554" lon="6.54401">
        <ele>1263</ele>
        <time>2023-06-03T19:27:29Z</time>
      </trkpt>
      <trkpt lat="45.67562" lon="6.54522">
        <ele>1259</ele>
        <time>2023-06-03T19:28:11Z</time>
      </trkpt>
      <trkpt lat="45.67595" lon="6.54591">
        <ele>1274</ele>
        <time>2023-06-03T19:28:41Z</time>
      </trkpt>
      <trkpt lat="45.67619" lon="6.54676">
        <ele>1280</ele>
        <time>2023-06-03T19:29:13Z</time>
      </trkpt>
      <trkpt lat="45.67687" lon="6.54724">
        <ele>1318</ele>
        <time>2023-06-03T19:29:51Z</time>
      </trkpt>
      <trkpt lat="45.67738" lon="6.54805">
        <ele>1335</ele>
        <time>2023-06-03T19:30:29Z</time>
      </trkpt>
      <trkpt lat="45.67804" lon="6.54872">
        <ele>1360</ele>
        <time>2023-06-03T19:31:09Z</time>
      </trkpt>
      <trkpt lat="45.67861" lon="6.54943">
        <ele>1370</ele>
        <time>2023-06-03T19:31:47Z</time>
      </trkpt>
      <trkpt lat="45.67915" lon="6.55017">
        <ele>1368</ele>
        <time>2023-06-03T19:32:24Z</time>
      </trkpt>
      <trkpt lat="45.67934" lon="6.55058">
        <ele>1363</ele>
        <time>2023-06-03T19:32:42Z</time>
      </trkpt>
      <trkpt lat="45.67978" lon="6.55085">
        <ele>1385</ele>
        <time>2023-06-03T19:33:06Z</time>
      </trkpt>
      <trkpt lat="45.68045" lon="6.55161">
        <ele>1386</ele>
        <time>2023-06-03T19:33:48Z</time>
      </trkpt>
      <trkpt lat="45.68074" lon="6.55208">
        <ele>1380</ele>
        <time>2023-06-03T19:34:10Z</time>
      </trkpt>
      <trkpt lat="45.68102" lon="6.5526">
        <ele>1368</ele>
        <time>2023-06-03T19:34:33Z</time>
      </trkpt>
      <trkpt lat="45.6809" lon="6.55255">
        <ele>1365</ele>
        <time>2023-06-03T19:34:40Z</time>
      </trkpt>
      <trkpt lat="45.68119" lon="6.55294">
        <ele>1360</ele>
        <time>2023-06-03T19:34:59Z</time>
      </trkpt>
      <trkpt lat="45.68153" lon="6.55347">
        <ele>1352</ele>
        <time>2023-06-03T19:35:25Z</time>
      </trkpt>
      <trkpt lat="45.68199" lon="6.55392">
        <ele>1346</ele>
        <time>2023-06-03T19:35:52Z</time>
      </trkpt>
      <trkpt lat="45.68235" lon="6.55415">
        <ele>1346</ele>
        <time>2023-06-03T19:36:12Z</time>
      </trkpt>
      <trkpt lat="45.68269" lon="6.55442">
        <ele>1345</ele>
        <time>2023-06-03T19:36:32Z</time>
      </trkpt>
      <trkpt lat="45.68332" lon="6.55567">
        <ele>1314</ele>
        <time>2023-06-03T19:37:26Z</time>
      </trkpt>
      <trkpt lat="45.68264" lon="6.55536">
        <ele>1304</ele>
        <time>2023-06-03T19:38:01Z</time>
      </trkpt>
      <trkpt lat="45.68273" lon="6.55581">
        <ele>1289</ele>
        <time>2023-06-03T19:38:18Z</time>
      </trkpt>
      <trkpt lat="45.68317" lon="6.55643">
        <ele>1280</ele>
        <time>2023-06-03T19:38:49Z</time>
      </trkpt>
      <trkpt lat="45.68366" lon="6.55704">
        <ele>1265</ele>
        <time>2023-06-03T19:39:21Z</time>
      </trkpt>
      <trkpt lat="45.68407" lon="6.55765">
        <ele>1241</ele>
        <time>2023-06-03T19:39:51Z</time>
      </trkpt>
      <trkpt lat="45.68342" lon="6.55747">
        <ele>1239</ele>
        <time>2023-06-03T19:40:24Z</time>
      </trkpt>
      <trkpt lat="45.68364" lon="6.55791">
        <ele>1223</ele>
        <time>2023-06-03T19:40:43Z</time>
      </trkpt>
      <trkpt lat="45.68362" lon="6.55823">
        <ele>1209</ele>
        <time>2023-06-03T19:40:54Z</time>
      </trkpt>
      <trkpt lat="45.68398" lon="6.55843">
        <ele>1207</ele>
        <time>2023-06-03T19:41:13Z</time>
      </trkpt>
      <trkpt lat="45.68405" lon="6.55922">
        <ele>1186</ele>
        <time>2023-06-03T19:41:41Z</time>
      </trkpt>
      <trkpt lat="45.68452" lon="6.55886">
        <ele>1185</ele>
        <time>2023-06-03T19:42:08Z</time>
      </trkpt>
      <trkpt lat="45.68486" lon="6.55848">
        <ele>1186</ele>
        <time>2023-06-03T19:42:29Z</time>
      </trkpt>
      <trkpt lat="45.68524" lon="6.55841">
        <ele>1180</ele>
        <time>2023-06-03T19:42:49Z</time>
      </trkpt>
      <trkpt lat="45.68481" lon="6.55893">
        <ele>1170</ele>
        <time>2023-06-03T19:43:17Z</time>
      </trkpt>
      <trkpt lat="45.68458" lon="6.55944">
        <ele>1165</ele>
        <time>2023-06-03T19:43:38Z</time>
      </trkpt>
      <trkpt lat="45.68441" lon="6.56018">
        <ele>1145</ele>
        <time>2023-06-03T19:44:05Z</time>
      </trkpt>
      <trkpt lat="45.68482" lon="6.56">
        <ele>1147</ele>
        <time>2023-06-03T19:44:27Z</time>
      </trkpt>
      <trkpt lat="45.68515" lon="6.55975">
        <ele>1141</ele>
        <time>2023-06-03T19:44:45Z</time>
      </trkpt>
      <trkpt lat="45.68555" lon="6.55967">
        <ele>1129</ele>
        <time>2023-06-03T19:45:05Z</time>
      </trkpt>
      <trkpt lat="45.68567" lon="6.56079">
        <ele>1088</ele>
        <time>2023-06-03T19:45:45Z</time>
      </trkpt>
      <trkpt lat="45.68587" lon="6.56146">
        <ele>1060</ele>
        <time>2023-06-03T19:46:11Z</time>
      </trkpt>
      <trkpt lat="45.68594" lon="6.56242">
        <ele>1042</ele>
        <time>2023-06-03T19:46:44Z</time>
      </trkpt>
      <trkpt lat="45.68616" lon="6.56286">
        <ele>1031</ele>
        <time>2023-06-03T19:47:03Z</time>
      </trkpt>
      <trkpt lat="45.68607" lon="6.56297">
        <ele>1029</ele>
        <time>2023-06-03T19:47:09Z</time>
      </trkpt>
      <trkpt lat="45.68563" lon="6.56329">
        <ele>1024</ele>
        <time>2023-06-03T19:47:34Z</time>
      </trkpt>
      <trkpt lat="45.68528" lon="6.56318">
        <ele>1025</ele>
        <time>2023-06-03T19:47:52Z</time>
      </trkpt>
      <trkpt lat="45.68512" lon="6.56308">
        <ele>1028</ele>
        <time>2023-06-03T19:48:01Z</time>
      </trkpt>
      <trkpt lat="45.68496" lon="6.56306">
        <ele>1028</ele>
        <time>2023-06-03T19:48:09Z</time>
      </trkpt>
      <trkpt lat="45.68473" lon="6.56325">
        <ele>1020</ele>
        <time>2023-06-03T19:48:22Z</time>
      </trkpt>
      <trkpt lat="45.68444" lon="6.56311">
        <ele>1023</ele>
        <time>2023-06-03T19:48:37Z</time>
      </trkpt>
      <trkpt lat="45.68389" lon="6.56267">
        <ele>1028</ele>
        <time>2023-06-03T19:49:09Z</time>
      </trkpt>
    </trkseg>
  </trk>
</gpx>